sensor_id;sensor_type;location;lat;lon;timestamp;P1;durP1;ratioP1;P2;durP2;ratioP2
14876;SDS011;69691;48.172;17.070;2023-04-28T00:00:50;12.05;;;7.07;;
14876;SDS011;69691;48.172;17.070;2023-04-28T00:03:16;10.77;;;6.28;;
14876;SDS011;69691;48.172;17.070;2023-04-28T00:05:42;15.25;;;7.28;;
14876;SDS011;69691;48.172;17.070;2023-04-28T00:08:08;14.35;;;6.90;;
14876;SDS011;69691;48.172;17.070;2023-04-28T00:10:34;15.65;;;7.07;;
14876;SDS011;69691;48.172;17.070;2023-04-28T00:13:00;13.85;;;6.60;;
14876;SDS011;69691;48.172;17.070;2023-04-28T00:15:26;13.50;;;6.90;;
14876;SDS011;69691;48.172;17.070;2023-04-28T00:17:51;8.90;;;6.40;;
14876;SDS011;69691;48.172;17.070;2023-04-28T00:20:18;17.17;;;6.63;;
14876;SDS011;69691;48.172;17.070;2023-04-28T00:22:44;14.15;;;6.85;;
14876;SDS011;69691;48.172;17.070;2023-04-28T00:25:10;13.82;;;6.25;;
14876;SDS011;69691;48.172;17.070;2023-04-28T00:27:35;12.30;;;7.40;;
14876;SDS011;69691;48.172;17.070;2023-04-28T00:30:01;12.25;;;6.68;;
14876;SDS011;69691;48.172;17.070;2023-04-28T00:32:28;13.18;;;6.70;;
14876;SDS011;69691;48.172;17.070;2023-04-28T00:34:53;13.70;;;6.65;;
14876;SDS011;69691;48.172;17.070;2023-04-28T00:37:21;12.45;;;7.82;;
14876;SDS011;69691;48.172;17.070;2023-04-28T00:39:47;15.30;;;6.38;;
14876;SDS011;69691;48.172;17.070;2023-04-28T00:42:13;10.23;;;6.43;;
14876;SDS011;69691;48.172;17.070;2023-04-28T00:44:40;16.50;;;6.70;;
14876;SDS011;69691;48.172;17.070;2023-04-28T00:47:07;11.23;;;6.13;;
14876;SDS011;69691;48.172;17.070;2023-04-28T00:49:34;10.85;;;6.55;;
14876;SDS011;69691;48.172;17.070;2023-04-28T00:52:03;11.50;;;6.78;;
14876;SDS011;69691;48.172;17.070;2023-04-28T00:54:31;10.98;;;6.60;;
14876;SDS011;69691;48.172;17.070;2023-04-28T00:56:59;15.45;;;6.32;;
14876;SDS011;69691;48.172;17.070;2023-04-28T00:59:27;12.27;;;6.88;;
14876;SDS011;69691;48.172;17.070;2023-04-28T01:01:54;10.23;;;6.45;;
14876;SDS011;69691;48.172;17.070;2023-04-28T01:04:20;16.55;;;6.55;;
14876;SDS011;69691;48.172;17.070;2023-04-28T01:06:51;10.63;;;5.97;;
14876;SDS011;69691;48.172;17.070;2023-04-28T01:09:17;16.70;;;6.03;;
14876;SDS011;69691;48.172;17.070;2023-04-28T01:11:44;9.90;;;5.90;;
14876;SDS011;69691;48.172;17.070;2023-04-28T01:14:15;10.73;;;6.78;;
14876;SDS011;69691;48.172;17.070;2023-04-28T01:16:41;9.70;;;6.43;;
14876;SDS011;69691;48.172;17.070;2023-04-28T01:19:07;13.52;;;6.72;;
14876;SDS011;69691;48.172;17.070;2023-04-28T01:21:42;12.32;;;6.38;;
14876;SDS011;69691;48.172;17.070;2023-04-28T01:24:16;13.73;;;6.97;;
14876;SDS011;69691;48.172;17.070;2023-04-28T01:26:42;9.95;;;6.53;;
14876;SDS011;69691;48.172;17.070;2023-04-28T01:29:09;11.38;;;6.68;;
14876;SDS011;69691;48.172;17.070;2023-04-28T01:31:35;8.60;;;6.32;;
14876;SDS011;69691;48.172;17.070;2023-04-28T01:34:00;16.77;;;6.50;;
14876;SDS011;69691;48.172;17.070;2023-04-28T01:36:26;11.18;;;6.90;;
14876;SDS011;69691;48.172;17.070;2023-04-28T01:38:53;13.50;;;6.90;;
14876;SDS011;69691;48.172;17.070;2023-04-28T01:41:19;13.52;;;7.05;;
14876;SDS011;69691;48.172;17.070;2023-04-28T01:43:46;18.50;;;7.82;;
14876;SDS011;69691;48.172;17.070;2023-04-28T01:46:12;9.05;;;6.72;;
14876;SDS011;69691;48.172;17.070;2023-04-28T01:48:38;10.45;;;6.88;;
14876;SDS011;69691;48.172;17.070;2023-04-28T01:51:04;13.63;;;6.78;;
14876;SDS011;69691;48.172;17.070;2023-04-28T01:53:30;13.07;;;7.53;;
14876;SDS011;69691;48.172;17.070;2023-04-28T01:55:56;11.80;;;7.20;;
14876;SDS011;69691;48.172;17.070;2023-04-28T01:58:23;13.88;;;7.57;;
14876;SDS011;69691;48.172;17.070;2023-04-28T02:00:49;20.83;;;7.75;;
14876;SDS011;69691;48.172;17.070;2023-04-28T02:03:17;11.05;;;7.63;;
14876;SDS011;69691;48.172;17.070;2023-04-28T02:05:43;15.95;;;7.75;;
14876;SDS011;69691;48.172;17.070;2023-04-28T02:08:09;11.65;;;7.50;;
14876;SDS011;69691;48.172;17.070;2023-04-28T02:10:35;11.75;;;7.85;;
14876;SDS011;69691;48.172;17.070;2023-04-28T02:13:01;12.40;;;8.73;;
14876;SDS011;69691;48.172;17.070;2023-04-28T02:15:26;14.07;;;8.50;;
14876;SDS011;69691;48.172;17.070;2023-04-28T02:17:52;15.15;;;8.75;;
14876;SDS011;69691;48.172;17.070;2023-04-28T02:20:18;16.00;;;8.60;;
14876;SDS011;69691;48.172;17.070;2023-04-28T02:22:44;14.40;;;8.50;;
14876;SDS011;69691;48.172;17.070;2023-04-28T02:25:10;10.80;;;7.80;;
14876;SDS011;69691;48.172;17.070;2023-04-28T02:27:36;22.88;;;8.80;;
14876;SDS011;69691;48.172;17.070;2023-04-28T02:30:03;19.27;;;9.52;;
14876;SDS011;69691;48.172;17.070;2023-04-28T02:32:30;15.90;;;9.10;;
14876;SDS011;69691;48.172;17.070;2023-04-28T02:34:56;14.32;;;8.73;;
14876;SDS011;69691;48.172;17.070;2023-04-28T02:37:22;18.92;;;9.48;;
14876;SDS011;69691;48.172;17.070;2023-04-28T02:39:49;16.45;;;8.77;;
14876;SDS011;69691;48.172;17.070;2023-04-28T02:42:15;17.92;;;8.48;;
14876;SDS011;69691;48.172;17.070;2023-04-28T02:44:41;14.10;;;8.60;;
14876;SDS011;69691;48.172;17.070;2023-04-28T02:47:07;15.65;;;8.50;;
14876;SDS011;69691;48.172;17.070;2023-04-28T02:49:36;17.02;;;8.00;;
14876;SDS011;69691;48.172;17.070;2023-04-28T02:52:05;14.82;;;8.93;;
14876;SDS011;69691;48.172;17.070;2023-04-28T02:54:31;12.93;;;8.52;;
14876;SDS011;69691;48.172;17.070;2023-04-28T02:57:00;15.65;;;8.02;;
14876;SDS011;69691;48.172;17.070;2023-04-28T02:59:27;13.10;;;8.02;;
14876;SDS011;69691;48.172;17.070;2023-04-28T03:01:53;17.95;;;9.15;;
14876;SDS011;69691;48.172;17.070;2023-04-28T03:04:19;17.27;;;9.20;;
14876;SDS011;69691;48.172;17.070;2023-04-28T03:06:45;14.85;;;9.25;;
14876;SDS011;69691;48.172;17.070;2023-04-28T03:09:11;13.82;;;8.40;;
14876;SDS011;69691;48.172;17.070;2023-04-28T03:11:38;14.07;;;8.95;;
14876;SDS011;69691;48.172;17.070;2023-04-28T03:14:04;17.88;;;9.07;;
14876;SDS011;69691;48.172;17.070;2023-04-28T03:16:29;18.20;;;8.40;;
14876;SDS011;69691;48.172;17.070;2023-04-28T03:18:55;13.15;;;8.50;;
14876;SDS011;69691;48.172;17.070;2023-04-28T03:21:21;20.63;;;9.82;;
14876;SDS011;69691;48.172;17.070;2023-04-28T03:23:48;13.27;;;8.48;;
14876;SDS011;69691;48.172;17.070;2023-04-28T03:26:14;17.88;;;9.65;;
14876;SDS011;69691;48.172;17.070;2023-04-28T03:28:40;14.43;;;8.75;;
14876;SDS011;69691;48.172;17.070;2023-04-28T03:31:06;22.50;;;8.35;;
14876;SDS011;69691;48.172;17.070;2023-04-28T03:33:32;18.60;;;8.93;;
14876;SDS011;69691;48.172;17.070;2023-04-28T03:35:59;16.98;;;7.68;;
14876;SDS011;69691;48.172;17.070;2023-04-28T03:38:25;12.48;;;7.97;;
14876;SDS011;69691;48.172;17.070;2023-04-28T03:40:51;14.07;;;8.85;;
14876;SDS011;69691;48.172;17.070;2023-04-28T03:43:29;15.93;;;8.10;;
14876;SDS011;69691;48.172;17.070;2023-04-28T03:46:23;17.98;;;8.80;;
14876;SDS011;69691;48.172;17.070;2023-04-28T03:48:50;18.58;;;7.95;;
14876;SDS011;69691;48.172;17.070;2023-04-28T03:51:17;15.88;;;8.98;;
14876;SDS011;69691;48.172;17.070;2023-04-28T03:53:43;19.02;;;9.05;;
14876;SDS011;69691;48.172;17.070;2023-04-28T03:56:09;12.50;;;7.97;;
14876;SDS011;69691;48.172;17.070;2023-04-28T03:58:35;19.05;;;9.00;;
14876;SDS011;69691;48.172;17.070;2023-04-28T04:01:01;16.85;;;8.82;;
14876;SDS011;69691;48.172;17.070;2023-04-28T04:03:27;19.10;;;8.30;;
14876;SDS011;69691;48.172;17.070;2023-04-28T04:05:55;15.68;;;8.27;;
14876;SDS011;69691;48.172;17.070;2023-04-28T04:08:21;14.75;;;8.85;;
14876;SDS011;69691;48.172;17.070;2023-04-28T04:10:47;13.02;;;7.63;;
14876;SDS011;69691;48.172;17.070;2023-04-28T04:13:13;15.07;;;8.45;;
14876;SDS011;69691;48.172;17.070;2023-04-28T04:15:41;12.27;;;8.10;;
14876;SDS011;69691;48.172;17.070;2023-04-28T04:18:07;14.50;;;8.00;;
14876;SDS011;69691;48.172;17.070;2023-04-28T04:20:53;15.88;;;8.00;;
14876;SDS011;69691;48.172;17.070;2023-04-28T04:23:20;18.45;;;8.98;;
14876;SDS011;69691;48.172;17.070;2023-04-28T04:25:47;14.52;;;7.90;;
14876;SDS011;69691;48.172;17.070;2023-04-28T04:28:13;14.05;;;7.93;;
14876;SDS011;69691;48.172;17.070;2023-04-28T04:30:41;15.55;;;8.65;;
14876;SDS011;69691;48.172;17.070;2023-04-28T04:33:08;15.48;;;8.05;;
14876;SDS011;69691;48.172;17.070;2023-04-28T04:35:34;14.70;;;8.73;;
14876;SDS011;69691;48.172;17.070;2023-04-28T04:38:00;20.13;;;8.60;;
14876;SDS011;69691;48.172;17.070;2023-04-28T04:40:27;16.75;;;8.90;;
14876;SDS011;69691;48.172;17.070;2023-04-28T04:42:53;19.98;;;8.05;;
14876;SDS011;69691;48.172;17.070;2023-04-28T04:45:19;15.85;;;8.40;;
14876;SDS011;69691;48.172;17.070;2023-04-28T04:47:47;15.57;;;9.23;;
14876;SDS011;69691;48.172;17.070;2023-04-28T04:50:14;13.40;;;7.60;;
14876;SDS011;69691;48.172;17.070;2023-04-28T04:52:54;20.08;;;8.90;;
14876;SDS011;69691;48.172;17.070;2023-04-28T04:55:22;14.68;;;8.15;;
14876;SDS011;69691;48.172;17.070;2023-04-28T04:57:48;21.23;;;8.95;;
14876;SDS011;69691;48.172;17.070;2023-04-28T05:00:14;13.80;;;9.05;;
14876;SDS011;69691;48.172;17.070;2023-04-28T05:02:41;16.45;;;10.15;;
14876;SDS011;69691;48.172;17.070;2023-04-28T05:05:07;15.95;;;8.27;;
14876;SDS011;69691;48.172;17.070;2023-04-28T05:07:34;11.07;;;8.32;;
14876;SDS011;69691;48.172;17.070;2023-04-28T05:10:00;17.05;;;8.18;;
14876;SDS011;69691;48.172;17.070;2023-04-28T05:12:28;11.93;;;8.10;;
14876;SDS011;69691;48.172;17.070;2023-04-28T05:14:54;13.13;;;8.60;;
14876;SDS011;69691;48.172;17.070;2023-04-28T05:17:20;14.13;;;9.07;;
14876;SDS011;69691;48.172;17.070;2023-04-28T05:19:46;17.17;;;9.40;;
14876;SDS011;69691;48.172;17.070;2023-04-28T05:22:13;23.17;;;9.48;;
14876;SDS011;69691;48.172;17.070;2023-04-28T05:24:38;14.93;;;8.48;;
14876;SDS011;69691;48.172;17.070;2023-04-28T05:27:04;17.70;;;9.68;;
14876;SDS011;69691;48.172;17.070;2023-04-28T05:29:30;14.35;;;9.00;;
14876;SDS011;69691;48.172;17.070;2023-04-28T05:31:57;14.93;;;8.88;;
14876;SDS011;69691;48.172;17.070;2023-04-28T05:34:23;18.15;;;8.98;;
14876;SDS011;69691;48.172;17.070;2023-04-28T05:36:50;19.52;;;9.45;;
14876;SDS011;69691;48.172;17.070;2023-04-28T05:39:18;14.02;;;8.15;;
14876;SDS011;69691;48.172;17.070;2023-04-28T05:41:44;14.30;;;8.65;;
14876;SDS011;69691;48.172;17.070;2023-04-28T05:44:10;14.75;;;8.82;;
14876;SDS011;69691;48.172;17.070;2023-04-28T05:46:36;13.25;;;7.97;;
14876;SDS011;69691;48.172;17.070;2023-04-28T05:49:02;19.25;;;9.32;;
14876;SDS011;69691;48.172;17.070;2023-04-28T05:51:32;16.23;;;8.73;;
14876;SDS011;69691;48.172;17.070;2023-04-28T05:53:58;15.52;;;9.23;;
14876;SDS011;69691;48.172;17.070;2023-04-28T05:56:26;19.55;;;8.98;;
14876;SDS011;69691;48.172;17.070;2023-04-28T05:58:52;16.67;;;9.90;;
14876;SDS011;69691;48.172;17.070;2023-04-28T06:01:18;18.10;;;8.80;;
14876;SDS011;69691;48.172;17.070;2023-04-28T06:03:45;17.23;;;8.52;;
14876;SDS011;69691;48.172;17.070;2023-04-28T06:06:10;20.58;;;8.85;;
14876;SDS011;69691;48.172;17.070;2023-04-28T06:08:37;15.48;;;9.00;;
14876;SDS011;69691;48.172;17.070;2023-04-28T06:11:04;13.75;;;8.15;;
14876;SDS011;69691;48.172;17.070;2023-04-28T06:13:30;22.10;;;10.13;;
14876;SDS011;69691;48.172;17.070;2023-04-28T06:15:56;18.38;;;9.43;;
14876;SDS011;69691;48.172;17.070;2023-04-28T06:18:22;18.35;;;8.70;;
14876;SDS011;69691;48.172;17.070;2023-04-28T06:20:48;16.58;;;8.35;;
14876;SDS011;69691;48.172;17.070;2023-04-28T06:23:14;13.20;;;8.25;;
14876;SDS011;69691;48.172;17.070;2023-04-28T06:25:45;16.45;;;9.43;;
14876;SDS011;69691;48.172;17.070;2023-04-28T06:28:11;17.00;;;7.93;;
14876;SDS011;69691;48.172;17.070;2023-04-28T06:30:39;15.23;;;7.70;;
14876;SDS011;69691;48.172;17.070;2023-04-28T06:33:05;16.60;;;8.25;;
14876;SDS011;69691;48.172;17.070;2023-04-28T06:35:31;15.15;;;8.45;;
14876;SDS011;69691;48.172;17.070;2023-04-28T06:38:01;12.77;;;8.65;;
14876;SDS011;69691;48.172;17.070;2023-04-28T06:40:27;15.60;;;8.63;;
14876;SDS011;69691;48.172;17.070;2023-04-28T06:42:55;13.75;;;7.90;;
14876;SDS011;69691;48.172;17.070;2023-04-28T06:45:34;13.02;;;8.20;;
14876;SDS011;69691;48.172;17.070;2023-04-28T06:48:00;9.73;;;7.22;;
14876;SDS011;69691;48.172;17.070;2023-04-28T06:50:27;12.70;;;7.68;;
14876;SDS011;69691;48.172;17.070;2023-04-28T06:52:53;18.92;;;8.70;;
14876;SDS011;69691;48.172;17.070;2023-04-28T06:55:19;19.00;;;8.65;;
14876;SDS011;69691;48.172;17.070;2023-04-28T06:57:45;11.63;;;8.07;;
14876;SDS011;69691;48.172;17.070;2023-04-28T07:00:11;15.90;;;8.10;;
14876;SDS011;69691;48.172;17.070;2023-04-28T07:02:38;13.90;;;8.15;;
14876;SDS011;69691;48.172;17.070;2023-04-28T07:05:04;15.85;;;7.38;;
14876;SDS011;69691;48.172;17.070;2023-04-28T07:07:30;12.05;;;6.85;;
14876;SDS011;69691;48.172;17.070;2023-04-28T07:09:56;12.32;;;7.15;;
14876;SDS011;69691;48.172;17.070;2023-04-28T07:12:23;13.43;;;6.85;;
14876;SDS011;69691;48.172;17.070;2023-04-28T07:14:49;11.80;;;6.43;;
14876;SDS011;69691;48.172;17.070;2023-04-28T07:17:15;11.40;;;7.28;;
14876;SDS011;69691;48.172;17.070;2023-04-28T07:19:41;13.68;;;7.28;;
14876;SDS011;69691;48.172;17.070;2023-04-28T07:22:07;13.77;;;7.28;;
14876;SDS011;69691;48.172;17.070;2023-04-28T07:24:33;11.07;;;7.53;;
14876;SDS011;69691;48.172;17.070;2023-04-28T07:26:58;13.15;;;7.18;;
14876;SDS011;69691;48.172;17.070;2023-04-28T07:29:25;17.10;;;7.78;;
14876;SDS011;69691;48.172;17.070;2023-04-28T07:31:53;11.88;;;7.45;;
14876;SDS011;69691;48.172;17.070;2023-04-28T07:34:19;14.52;;;7.68;;
14876;SDS011;69691;48.172;17.070;2023-04-28T07:36:45;17.17;;;8.57;;
14876;SDS011;69691;48.172;17.070;2023-04-28T07:39:11;16.13;;;8.07;;
14876;SDS011;69691;48.172;17.070;2023-04-28T07:41:37;10.00;;;8.32;;
14876;SDS011;69691;48.172;17.070;2023-04-28T07:44:05;16.15;;;8.98;;
14876;SDS011;69691;48.172;17.070;2023-04-28T07:46:32;16.98;;;8.32;;
14876;SDS011;69691;48.172;17.070;2023-04-28T07:48:59;19.05;;;8.98;;
14876;SDS011;69691;48.172;17.070;2023-04-28T07:51:25;16.38;;;8.82;;
14876;SDS011;69691;48.172;17.070;2023-04-28T07:53:51;10.55;;;8.20;;
14876;SDS011;69691;48.172;17.070;2023-04-28T07:56:17;12.45;;;7.85;;
14876;SDS011;69691;48.172;17.070;2023-04-28T07:58:43;18.73;;;9.55;;
14876;SDS011;69691;48.172;17.070;2023-04-28T08:01:09;14.75;;;8.73;;
14876;SDS011;69691;48.172;17.070;2023-04-28T08:03:36;13.20;;;8.60;;
14876;SDS011;69691;48.172;17.070;2023-04-28T08:06:02;18.05;;;9.27;;
14876;SDS011;69691;48.172;17.070;2023-04-28T08:08:28;15.57;;;9.20;;
14876;SDS011;69691;48.172;17.070;2023-04-28T08:10:55;14.38;;;8.05;;
14876;SDS011;69691;48.172;17.070;2023-04-28T08:13:22;12.70;;;7.97;;
14876;SDS011;69691;48.172;17.070;2023-04-28T08:15:47;11.45;;;8.32;;
14876;SDS011;69691;48.172;17.070;2023-04-28T08:18:13;16.42;;;9.13;;
14876;SDS011;69691;48.172;17.070;2023-04-28T08:20:40;11.85;;;8.65;;
14876;SDS011;69691;48.172;17.070;2023-04-28T08:23:06;14.35;;;8.85;;
14876;SDS011;69691;48.172;17.070;2023-04-28T08:25:33;21.08;;;8.75;;
14876;SDS011;69691;48.172;17.070;2023-04-28T08:27:59;18.40;;;8.75;;
14876;SDS011;69691;48.172;17.070;2023-04-28T08:30:27;17.90;;;8.75;;
14876;SDS011;69691;48.172;17.070;2023-04-28T08:32:54;15.30;;;8.48;;
14876;SDS011;69691;48.172;17.070;2023-04-28T08:35:19;16.65;;;8.15;;
14876;SDS011;69691;48.172;17.070;2023-04-28T08:37:45;15.20;;;9.02;;
14876;SDS011;69691;48.172;17.070;2023-04-28T08:40:13;15.43;;;9.18;;
14876;SDS011;69691;48.172;17.070;2023-04-28T08:42:39;17.73;;;8.68;;
14876;SDS011;69691;48.172;17.070;2023-04-28T08:45:06;15.45;;;8.57;;
14876;SDS011;69691;48.172;17.070;2023-04-28T08:47:38;18.48;;;9.65;;
14876;SDS011;69691;48.172;17.070;2023-04-28T08:50:08;21.08;;;8.13;;
14876;SDS011;69691;48.172;17.070;2023-04-28T08:52:36;12.57;;;8.32;;
14876;SDS011;69691;48.172;17.070;2023-04-28T08:55:10;15.45;;;9.05;;
14876;SDS011;69691;48.172;17.070;2023-04-28T09:00:12;12.40;;;7.93;;
14876;SDS011;69691;48.172;17.070;2023-04-28T09:02:38;19.13;;;8.60;;
14876;SDS011;69691;48.172;17.070;2023-04-28T09:05:09;16.20;;;9.43;;
14876;SDS011;69691;48.172;17.070;2023-04-28T09:07:36;21.30;;;10.00;;
14876;SDS011;69691;48.172;17.070;2023-04-28T09:10:14;15.98;;;10.02;;
14876;SDS011;69691;48.172;17.070;2023-04-28T09:12:50;14.25;;;9.02;;
14876;SDS011;69691;48.172;17.070;2023-04-28T09:15:28;18.80;;;9.18;;
14876;SDS011;69691;48.172;17.070;2023-04-28T09:17:59;22.20;;;9.43;;
14876;SDS011;69691;48.172;17.070;2023-04-28T09:20:27;18.55;;;8.63;;
14876;SDS011;69691;48.172;17.070;2023-04-28T09:22:55;15.82;;;8.65;;
14876;SDS011;69691;48.172;17.070;2023-04-28T09:25:37;16.30;;;8.65;;
14876;SDS011;69691;48.172;17.070;2023-04-28T09:28:19;14.32;;;8.48;;
14876;SDS011;69691;48.172;17.070;2023-04-28T09:30:46;19.52;;;8.90;;
14876;SDS011;69691;48.172;17.070;2023-04-28T09:33:12;16.83;;;9.15;;
14876;SDS011;69691;48.172;17.070;2023-04-28T09:35:38;15.48;;;8.43;;
14876;SDS011;69691;48.172;17.070;2023-04-28T09:38:05;14.30;;;7.65;;
14876;SDS011;69691;48.172;17.070;2023-04-28T09:40:31;19.55;;;9.32;;
14876;SDS011;69691;48.172;17.070;2023-04-28T09:42:58;15.02;;;7.82;;
14876;SDS011;69691;48.172;17.070;2023-04-28T09:45:24;18.33;;;8.82;;
14876;SDS011;69691;48.172;17.070;2023-04-28T09:47:51;14.32;;;8.13;;
14876;SDS011;69691;48.172;17.070;2023-04-28T09:50:17;24.90;;;7.45;;
14876;SDS011;69691;48.172;17.070;2023-04-28T09:52:43;13.07;;;6.85;;
14876;SDS011;69691;48.172;17.070;2023-04-28T09:55:13;15.70;;;6.78;;
14876;SDS011;69691;48.172;17.070;2023-04-28T09:57:39;11.85;;;6.20;;
14876;SDS011;69691;48.172;17.070;2023-04-28T10:00:06;23.33;;;6.57;;
14876;SDS011;69691;48.172;17.070;2023-04-28T10:02:35;22.38;;;5.53;;
14876;SDS011;69691;48.172;17.070;2023-04-28T10:05:02;12.35;;;5.68;;
14876;SDS011;69691;48.172;17.070;2023-04-28T10:07:32;12.35;;;5.90;;
14876;SDS011;69691;48.172;17.070;2023-04-28T10:09:59;13.98;;;5.82;;
14876;SDS011;69691;48.172;17.070;2023-04-28T10:12:26;9.20;;;5.63;;
14876;SDS011;69691;48.172;17.070;2023-04-28T10:14:52;11.07;;;5.90;;
14876;SDS011;69691;48.172;17.070;2023-04-28T10:17:19;14.43;;;6.20;;
14876;SDS011;69691;48.172;17.070;2023-04-28T10:19:47;10.70;;;5.88;;
14876;SDS011;69691;48.172;17.070;2023-04-28T10:25:27;13.75;;;5.75;;
14876;SDS011;69691;48.172;17.070;2023-04-28T10:27:56;18.10;;;6.22;;
14876;SDS011;69691;48.172;17.070;2023-04-28T10:30:24;16.60;;;6.25;;
14876;SDS011;69691;48.172;17.070;2023-04-28T10:35:39;12.68;;;6.07;;
14876;SDS011;69691;48.172;17.070;2023-04-28T10:38:14;13.18;;;5.20;;
14876;SDS011;69691;48.172;17.070;2023-04-28T10:40:43;12.00;;;5.35;;
14876;SDS011;69691;48.172;17.070;2023-04-28T10:43:11;9.50;;;4.53;;
14876;SDS011;69691;48.172;17.070;2023-04-28T10:48:16;16.55;;;5.20;;
14876;SDS011;69691;48.172;17.070;2023-04-28T10:54:05;14.85;;;4.90;;
14876;SDS011;69691;48.172;17.070;2023-04-28T10:56:18;15.70;;;5.15;;
14876;SDS011;69691;48.172;17.070;2023-04-28T10:58:52;12.88;;;5.05;;
14876;SDS011;69691;48.172;17.070;2023-04-28T11:03:52;9.55;;;5.10;;
14876;SDS011;69691;48.172;17.070;2023-04-28T11:06:40;11.18;;;4.60;;
14876;SDS011;69691;48.172;17.070;2023-04-28T11:14:34;10.00;;;5.57;;
14876;SDS011;69691;48.172;17.070;2023-04-28T11:17:05;12.20;;;4.57;;
14876;SDS011;69691;48.172;17.070;2023-04-28T11:19:43;11.32;;;4.95;;
14876;SDS011;69691;48.172;17.070;2023-04-28T11:22:13;13.95;;;5.35;;
14876;SDS011;69691;48.172;17.070;2023-04-28T11:24:53;18.05;;;5.13;;
14876;SDS011;69691;48.172;17.070;2023-04-28T11:27:24;11.93;;;4.60;;
14876;SDS011;69691;48.172;17.070;2023-04-28T11:29:52;10.63;;;4.80;;
14876;SDS011;69691;48.172;17.070;2023-04-28T11:32:24;8.90;;;4.28;;
14876;SDS011;69691;48.172;17.070;2023-04-28T11:34:58;5.53;;;4.47;;
14876;SDS011;69691;48.172;17.070;2023-04-28T11:37:24;10.00;;;5.18;;
14876;SDS011;69691;48.172;17.070;2023-04-28T11:39:51;13.02;;;5.00;;
14876;SDS011;69691;48.172;17.070;2023-04-28T11:42:17;11.93;;;5.32;;
14876;SDS011;69691;48.172;17.070;2023-04-28T11:44:49;10.63;;;4.60;;
14876;SDS011;69691;48.172;17.070;2023-04-28T11:47:27;16.02;;;4.63;;
14876;SDS011;69691;48.172;17.070;2023-04-28T11:49:57;11.02;;;5.22;;
14876;SDS011;69691;48.172;17.070;2023-04-28T11:52:23;14.82;;;6.32;;
14876;SDS011;69691;48.172;17.070;2023-04-28T11:55:00;13.18;;;4.65;;
14876;SDS011;69691;48.172;17.070;2023-04-28T11:57:27;12.27;;;4.47;;
14876;SDS011;69691;48.172;17.070;2023-04-28T11:59:53;17.42;;;4.75;;
14876;SDS011;69691;48.172;17.070;2023-04-28T12:02:36;8.93;;;5.03;;
14876;SDS011;69691;48.172;17.070;2023-04-28T12:05:06;6.70;;;4.20;;
14876;SDS011;69691;48.172;17.070;2023-04-28T12:07:41;9.30;;;4.57;;
14876;SDS011;69691;48.172;17.070;2023-04-28T12:12:39;13.95;;;4.53;;
14876;SDS011;69691;48.172;17.070;2023-04-28T12:15:06;9.43;;;5.32;;
14876;SDS011;69691;48.172;17.070;2023-04-28T12:17:37;12.48;;;4.30;;
14876;SDS011;69691;48.172;17.070;2023-04-28T12:20:06;11.02;;;5.00;;
14876;SDS011;69691;48.172;17.070;2023-04-28T12:22:43;16.20;;;4.47;;
14876;SDS011;69691;48.172;17.070;2023-04-28T12:25:16;9.90;;;4.45;;
14876;SDS011;69691;48.172;17.070;2023-04-28T12:27:59;9.45;;;4.35;;
14876;SDS011;69691;48.172;17.070;2023-04-28T12:30:27;11.38;;;4.93;;
14876;SDS011;69691;48.172;17.070;2023-04-28T12:32:54;6.60;;;4.25;;
14876;SDS011;69691;48.172;17.070;2023-04-28T12:35:22;11.75;;;4.80;;
14876;SDS011;69691;48.172;17.070;2023-04-28T12:37:49;9.82;;;4.57;;
14876;SDS011;69691;48.172;17.070;2023-04-28T12:40:17;8.82;;;4.68;;
14876;SDS011;69691;48.172;17.070;2023-04-28T12:42:43;8.98;;;5.20;;
14876;SDS011;69691;48.172;17.070;2023-04-28T12:45:09;17.33;;;4.88;;
14876;SDS011;69691;48.172;17.070;2023-04-28T12:47:35;16.25;;;5.20;;
14876;SDS011;69691;48.172;17.070;2023-04-28T12:50:03;9.02;;;4.90;;
14876;SDS011;69691;48.172;17.070;2023-04-28T12:52:30;7.25;;;4.18;;
14876;SDS011;69691;48.172;17.070;2023-04-28T12:54:58;12.35;;;4.90;;
14876;SDS011;69691;48.172;17.070;2023-04-28T12:57:24;11.20;;;4.60;;
14876;SDS011;69691;48.172;17.070;2023-04-28T12:59:53;7.75;;;4.75;;
14876;SDS011;69691;48.172;17.070;2023-04-28T13:02:21;7.13;;;4.38;;
14876;SDS011;69691;48.172;17.070;2023-04-28T13:04:47;8.55;;;4.28;;
14876;SDS011;69691;48.172;17.070;2023-04-28T13:07:16;11.77;;;4.82;;
14876;SDS011;69691;48.172;17.070;2023-04-28T13:09:42;8.43;;;4.65;;
14876;SDS011;69691;48.172;17.070;2023-04-28T13:12:09;11.75;;;4.43;;
14876;SDS011;69691;48.172;17.070;2023-04-28T13:14:36;11.73;;;4.07;;
14876;SDS011;69691;48.172;17.070;2023-04-28T13:17:02;8.65;;;4.40;;
14876;SDS011;69691;48.172;17.070;2023-04-28T13:19:28;11.80;;;4.60;;
14876;SDS011;69691;48.172;17.070;2023-04-28T13:21:55;6.40;;;4.15;;
14876;SDS011;69691;48.172;17.070;2023-04-28T13:24:21;7.60;;;3.80;;
14876;SDS011;69691;48.172;17.070;2023-04-28T13:26:47;6.95;;;4.00;;
14876;SDS011;69691;48.172;17.070;2023-04-28T13:29:13;11.35;;;4.38;;
14876;SDS011;69691;48.172;17.070;2023-04-28T13:31:39;11.60;;;4.68;;
14876;SDS011;69691;48.172;17.070;2023-04-28T13:34:05;10.75;;;4.70;;
14876;SDS011;69691;48.172;17.070;2023-04-28T13:36:32;4.63;;;3.78;;
14876;SDS011;69691;48.172;17.070;2023-04-28T13:38:59;6.50;;;4.30;;
14876;SDS011;69691;48.172;17.070;2023-04-28T13:41:25;13.73;;;4.40;;
14876;SDS011;69691;48.172;17.070;2023-04-28T13:43:51;7.55;;;3.63;;
14876;SDS011;69691;48.172;17.070;2023-04-28T13:46:18;10.38;;;4.68;;
14876;SDS011;69691;48.172;17.070;2023-04-28T13:48:44;9.82;;;4.43;;
14876;SDS011;69691;48.172;17.070;2023-04-28T13:51:10;13.60;;;4.15;;
14876;SDS011;69691;48.172;17.070;2023-04-28T13:53:37;11.40;;;4.50;;
14876;SDS011;69691;48.172;17.070;2023-04-28T13:56:03;11.75;;;4.82;;
14876;SDS011;69691;48.172;17.070;2023-04-28T13:58:30;10.15;;;4.65;;
14876;SDS011;69691;48.172;17.070;2023-04-28T14:00:57;7.28;;;4.40;;
14876;SDS011;69691;48.172;17.070;2023-04-28T14:03:23;8.57;;;4.32;;
14876;SDS011;69691;48.172;17.070;2023-04-28T14:05:50;10.88;;;4.60;;
14876;SDS011;69691;48.172;17.070;2023-04-28T14:08:19;9.70;;;4.22;;
14876;SDS011;69691;48.172;17.070;2023-04-28T14:10:46;7.38;;;4.10;;
14876;SDS011;69691;48.172;17.070;2023-04-28T14:13:13;10.40;;;4.07;;
14876;SDS011;69691;48.172;17.070;2023-04-28T14:15:39;9.25;;;4.80;;
14876;SDS011;69691;48.172;17.070;2023-04-28T14:18:06;11.65;;;4.70;;
14876;SDS011;69691;48.172;17.070;2023-04-28T14:20:33;10.85;;;5.13;;
14876;SDS011;69691;48.172;17.070;2023-04-28T14:23:00;11.57;;;4.78;;
14876;SDS011;69691;48.172;17.070;2023-04-28T14:25:26;14.90;;;4.68;;
14876;SDS011;69691;48.172;17.070;2023-04-28T14:27:52;11.13;;;4.57;;
14876;SDS011;69691;48.172;17.070;2023-04-28T14:30:23;11.25;;;5.10;;
14876;SDS011;69691;48.172;17.070;2023-04-28T14:32:50;8.10;;;4.60;;
14876;SDS011;69691;48.172;17.070;2023-04-28T14:35:17;8.63;;;4.78;;
14876;SDS011;69691;48.172;17.070;2023-04-28T14:37:45;6.50;;;4.00;;
14876;SDS011;69691;48.172;17.070;2023-04-28T14:40:11;9.75;;;4.10;;
14876;SDS011;69691;48.172;17.070;2023-04-28T14:42:38;11.38;;;5.60;;
14876;SDS011;69691;48.172;17.070;2023-04-28T14:45:07;10.07;;;4.18;;
14876;SDS011;69691;48.172;17.070;2023-04-28T14:47:37;12.00;;;5.22;;
14876;SDS011;69691;48.172;17.070;2023-04-28T14:50:04;11.75;;;4.32;;